Qiryat Bialik, Israel
Current Conditions -  °F | °C
As of 3:50 PM on Thursday 18 Dec 2014 (Local Time) from LLHA Reporting Station
Clear Clear  
Wind Chill: 63°   Ceiling: Unl
Heat Index: 63°   Visibility: 6mi
Dew Point: 46°   Wind: 9mph
Humidity: 55%   Direction: 120°ESE
Pressure: 30.06"   Gusts: NA
Location:  32.83°N, 35.08°E
Report Text: LLHA 181250Z 12008KT CAVOK 17/08 Q1018 RMK SCT100
Loading
Personal Weather Stations






























Interactive Weather Map New forecast layout! Learn more

10-Day Weather Forecast

Advertisements
Track Severe Weather on mobile